Heathsville, Illinois
Current Conditions -  °F | °C
As of 8:15 AM on Friday 19 Dec 2014 (Local Time) from KRSV Reporting Station
Clear Clear  
Wind Chill: -3°   Ceiling: Unl
Heat Index: -3°   Visibility: 7mi
Dew Point: -4°   Wind: 0mph
Humidity: 94%   Direction: NA
Pressure: 30.33"   Gusts: NA
Location:  38.904°N, 87.665°W
Report Text: KRSV 191415Z AUTO 00000KT 7SM CLR M03/M04 A3033 RMK AO2 T10351043
Loading
Personal Weather Stations






























Interactive Weather Map New forecast layout! Learn more

10-Day Weather Forecast

Advertisements
Track Severe Weather on mobile